Strona główna
METAR-TAF:

METAR-TAF

Lotnisko :

Port lotniczy Tours

Tours, Francja

Szerokość geograficzna: 47-27N, Długość geograficzna: 000-43E, wysokość: 108 m

Aktualna obserwacja pogody

Raport powstał 35 minut temu, godzina 03:00 UTC
Wiatr 9 kt od północny wschód
Temperatura 14°C
Wilgotność 77%
Ciśnienie 1029 hPa
Widzialność 10 km lub więcej
Brak chmur poniżej 1500 m i brak chmur cumulonimbus

METAR: LFOT 280300Z AUTO 05009KT CAVOK 14/10 Q1029 NOSIG

czas: 05:35 (03:35 UTC)

Prognoza

Raport powstał 4 godziny i 35 minut temu, godzina 23:00 UTC
Prognoza ważna od 28 godzina 00 UTC do 28 godzina 24 UTC
Wiatr 10 kt od północny wschód
Widzialność 10 km lub więcej
Brak chmur poniżej 1500 m i brak chmur cumulonimbus

TAF: LFOT 272300Z 2800/2824 05010KT CAVOK

Obserwacja i prognoza pogody dla ponad 4000 lotnisk (raport METAR i TAF).

Dostępne stacje oznaczono żółtymi i czerwonymi punktami na mapie.

Najedź kursorem aby zobaczyć nazwę stacji.

Kliknij aby zobaczyć obserwacje i prognozy pogody.

Aby zmienić mapę: kliknij na zielony przycisk z czarnym krzyżykiem, aby powiększyć; na zielony przycisk z myślnikiem, aby pomniejszyć; na zielone strzałki, aby przejść do map sąsiednich.


METAR-TAF: